Alley Springs, Missouri
Current Conditions -  °F | °C
As of 1:53 PM on Thursday 30 Oct 2014 (Local Time) from KUNO Reporting Station
Light Rain Light Rain  
Wind Chill: 61°   Ceiling: 7500
Heat Index: 61°   Visibility: 10mi
Dew Point: 38°   Wind: 7mph
Humidity: 42%   Direction: 200°SSW
Pressure: 30.06"   Gusts: NA
Location:  37.1833°N, 91.4819°W
Report Text: KUNO 301853Z AUTO 20006KT 10SM -RA OVC075 16/03 A3006 RMK AO2 RAB44 SLP178 P0000 T01610033
Loading
Personal Weather Stations






























Interactive Weather Map
Tropical Storm Tracking
New forecast layout! Learn more

10-Day Weather Forecast

Advertisements
Track Severe Weather on mobile